createdAt,value
2018-07-28T00:00:41.330Z,7.80
2018-07-28T00:03:10.684Z,7.60
2018-07-28T00:05:39.981Z,7.83
2018-07-28T00:08:09.310Z,6.97
2018-07-28T00:10:38.764Z,8.37
2018-07-28T00:13:08.142Z,8.63
2018-07-28T00:15:37.761Z,10.17
2018-07-28T00:18:07.292Z,9.13
2018-07-28T00:20:36.673Z,9.13
2018-07-28T00:23:06.225Z,18.83
2018-07-28T00:25:39.177Z,9.00
2018-07-28T00:28:08.746Z,9.10
2018-07-28T00:30:37.903Z,13.00
2018-07-28T00:33:07.253Z,10.20
2018-07-28T00:35:36.293Z,9.37
2018-07-28T00:38:05.639Z,16.63
2018-07-28T00:40:34.944Z,9.20
2018-07-28T00:43:04.321Z,10.40
2018-07-28T00:45:33.681Z,12.33
2018-07-28T00:48:03.106Z,9.60
2018-07-28T00:50:32.667Z,10.27
2018-07-28T00:53:02.094Z,9.57
2018-07-28T00:55:36.232Z,12.17
2018-07-28T00:58:06.489Z,12.10
2018-07-28T01:00:35.782Z,9.17
2018-07-28T01:03:05.234Z,9.37
2018-07-28T01:05:34.792Z,8.50
2018-07-28T01:08:04.253Z,14.07
2018-07-28T01:10:34.008Z,9.47
2018-07-28T01:13:03.430Z,8.37
2018-07-28T01:15:32.928Z,8.30
2018-07-28T01:18:02.334Z,8.67
2018-07-28T01:20:31.694Z,9.80
2018-07-28T01:23:01.107Z,16.03
2018-07-28T01:25:30.538Z,11.23
2018-07-28T01:27:59.884Z,8.83
2018-07-28T01:30:31.606Z,6.87
2018-07-28T01:33:01.916Z,7.93
2018-07-28T01:35:31.159Z,9.20
2018-07-28T01:38:00.597Z,12.67
2018-07-28T01:40:29.953Z,9.40
2018-07-28T01:42:59.306Z,10.93
2018-07-28T01:45:28.828Z,7.73
2018-07-28T01:47:58.143Z,7.43
2018-07-28T01:50:27.804Z,11.33
2018-07-28T01:52:57.228Z,12.40
2018-07-28T01:55:26.541Z,10.47
2018-07-28T01:57:55.769Z,9.10
2018-07-28T02:00:25.171Z,8.77
2018-07-28T02:02:55.489Z,14.43
2018-07-28T02:05:24.789Z,7.03
2018-07-28T02:07:54.237Z,7.40
2018-07-28T02:10:23.565Z,9.50
2018-07-28T02:12:52.936Z,7.63
2018-07-28T02:15:22.355Z,7.80
2018-07-28T02:17:51.821Z,8.97
2018-07-28T02:20:21.355Z,14.23
2018-07-28T02:22:51.667Z,11.63
2018-07-28T02:25:21.143Z,10.77
2018-07-28T02:27:50.420Z,10.50
2018-07-28T02:30:19.885Z,8.40
2018-07-28T02:32:49.362Z,13.07
2018-07-28T02:35:18.571Z,11.50
2018-07-28T02:37:47.847Z,13.17
2018-07-28T02:40:17.209Z,16.00
2018-07-28T02:42:46.662Z,14.57
2018-07-28T02:45:16.961Z,12.77
2018-07-28T02:47:46.362Z,10.43
2018-07-28T02:50:15.801Z,12.50
2018-07-28T02:52:45.484Z,10.23
2018-07-28T02:55:14.862Z,9.43
2018-07-28T02:57:44.561Z,11.03
2018-07-28T03:00:16.621Z,18.90
2018-07-28T03:02:46.173Z,17.73
2018-07-28T03:05:15.797Z,16.60
2018-07-28T03:07:46.445Z,15.13
2018-07-28T03:10:16.581Z,13.60
2018-07-28T03:12:46.603Z,19.53
2018-07-28T03:15:33.051Z,17.30
2018-07-28T03:18:04.809Z,15.57
2018-07-28T03:20:34.188Z,16.90
2018-07-28T03:23:04.076Z,16.13
2018-07-28T03:25:33.410Z,18.67
2018-07-28T03:28:02.883Z,16.87
2018-07-28T03:30:32.245Z,16.43
2018-07-28T03:33:01.749Z,14.57
2018-07-28T03:35:30.997Z,12.93
2018-07-28T03:38:00.363Z,15.30
2018-07-28T03:40:29.835Z,11.60
2018-07-28T03:42:59.277Z,10.60
2018-07-28T03:45:28.737Z,10.60
2018-07-28T03:47:58.099Z,12.20
2018-07-28T03:50:28.021Z,9.97
2018-07-28T03:52:59.650Z,13.93
2018-07-28T03:55:28.671Z,21.77
2018-07-28T03:57:57.770Z,12.90
2018-07-28T04:00:26.978Z,12.10
2018-07-28T04:02:55.952Z,10.80
2018-07-28T04:05:25.093Z,12.13
2018-07-28T04:07:54.850Z,12.73
2018-07-28T04:10:23.898Z,11.10
2018-07-28T04:12:52.897Z,13.47
2018-07-28T04:15:21.959Z,12.87
2018-07-28T04:17:53.088Z,15.80
2018-07-28T04:20:23.022Z,16.73
2018-07-28T04:22:52.604Z,15.13
2018-07-28T04:25:22.160Z,40.80
2018-07-28T04:27:51.507Z,28.30
2018-07-28T04:30:21.142Z,24.70
2018-07-28T04:32:50.179Z,78.57
2018-07-28T04:35:19.335Z,81.07
2018-07-28T04:37:48.482Z,34.93
2018-07-28T04:40:17.590Z,36.13
2018-07-28T04:42:46.715Z,27.60
2018-07-28T04:45:15.807Z,19.60
2018-07-28T04:47:45.658Z,39.90
2018-07-28T04:50:14.852Z,20.53
2018-07-28T04:52:44.071Z,17.83
2018-07-28T04:55:13.095Z,18.83
2018-07-28T04:57:42.486Z,14.57
2018-07-28T05:00:11.948Z,13.63
2018-07-28T05:02:41.102Z,11.07
2018-07-28T05:05:10.200Z,12.73
2018-07-28T05:07:39.505Z,12.43
2018-07-28T05:10:08.497Z,11.70
2018-07-28T05:12:37.572Z,13.20
2018-07-28T05:15:07.564Z,15.57
2018-07-28T05:17:36.754Z,16.53
2018-07-28T05:20:06.694Z,23.57
2018-07-28T05:22:35.750Z,16.10
2018-07-28T05:25:04.934Z,15.47
2018-07-28T05:27:34.646Z,27.13
2018-07-28T05:30:04.158Z,21.87
2018-07-28T05:32:33.653Z,15.57
2018-07-28T05:35:02.992Z,17.23
2018-07-28T05:37:32.501Z,17.50
2018-07-28T05:40:02.558Z,19.77
2018-07-28T05:42:32.181Z,22.67
2018-07-28T05:45:01.610Z,29.60
2018-07-28T05:47:31.131Z,19.47
2018-07-28T05:50:01.402Z,15.37
2018-07-28T05:52:31.200Z,22.30
2018-07-28T05:55:00.765Z,21.27
2018-07-28T05:57:30.120Z,19.70
2018-07-28T06:00:00.801Z,18.00
2018-07-28T06:02:30.351Z,19.00
2018-07-28T06:04:59.656Z,17.23
2018-07-28T06:07:28.942Z,24.07
2018-07-28T06:09:58.349Z,18.53
2018-07-28T06:12:27.825Z,18.53
2018-07-28T06:14:57.241Z,31.83
2018-07-28T06:17:26.544Z,20.17
2018-07-28T06:19:56.095Z,21.30
2018-07-28T06:22:25.919Z,22.40
2018-07-28T06:24:55.458Z,21.17
2018-07-28T06:27:24.998Z,19.70
2018-07-28T06:29:54.715Z,13.77
2018-07-28T06:32:24.385Z,15.97
2018-07-28T06:34:53.712Z,16.27
2018-07-28T06:37:22.992Z,14.57
2018-07-28T06:39:52.602Z,20.93
2018-07-28T06:42:22.090Z,16.20
2018-07-28T06:44:51.531Z,15.10
2018-07-28T06:47:22.339Z,13.07
2018-07-28T06:49:52.305Z,13.80
2018-07-28T06:52:21.714Z,11.00
2018-07-28T06:54:51.076Z,12.53
2018-07-28T06:57:20.915Z,21.03
2018-07-28T06:59:50.359Z,15.53
2018-07-28T07:02:19.793Z,13.03
2018-07-28T07:04:49.206Z,15.30
2018-07-28T07:07:18.714Z,15.70
2018-07-28T07:09:48.214Z,10.57
2018-07-28T07:12:17.918Z,11.47
2018-07-28T07:14:48.411Z,12.13
2018-07-28T07:17:18.352Z,14.70
2018-07-28T07:19:48.025Z,9.93
2018-07-28T07:22:17.446Z,21.83
2018-07-28T07:24:47.099Z,9.47
2018-07-28T07:27:16.980Z,12.70
2018-07-28T07:29:46.716Z,17.97
2018-07-28T07:32:16.142Z,10.93
2018-07-28T07:34:45.636Z,12.10
2018-07-28T07:37:16.716Z,11.17
2018-07-28T07:39:47.603Z,12.70
2018-07-28T07:42:17.885Z,10.30
2018-07-28T07:44:47.473Z,9.93
2018-07-28T07:47:17.109Z,11.07
2018-07-28T07:49:47.199Z,14.80
2018-07-28T07:52:16.528Z,10.67
2018-07-28T07:54:45.856Z,11.93
2018-07-28T07:57:14.944Z,10.23
2018-07-28T07:59:45.633Z,9.60
2018-07-28T08:02:15.082Z,8.27
2018-07-28T08:04:44.405Z,8.40
2018-07-28T08:07:14.005Z,8.77
2018-07-28T08:09:43.267Z,12.60
2018-07-28T08:12:12.743Z,9.17
2018-07-28T08:14:42.476Z,10.70
2018-07-28T08:17:11.919Z,9.30
2018-07-28T08:19:41.334Z,9.80
2018-07-28T08:22:10.990Z,9.17
2018-07-28T08:24:40.471Z,10.10
2018-07-28T08:27:10.107Z,8.77
2018-07-28T08:29:39.599Z,9.73
2018-07-28T08:32:09.507Z,11.70
2018-07-28T08:34:38.904Z,8.90
2018-07-28T08:37:08.338Z,9.03
2018-07-28T08:39:37.645Z,13.83
2018-07-28T08:42:07.113Z,9.37
2018-07-28T08:44:36.348Z,10.37
2018-07-28T08:47:06.549Z,11.10
2018-07-28T08:49:35.990Z,14.17
2018-07-28T08:52:05.730Z,8.60
2018-07-28T08:54:35.373Z,10.00
2018-07-28T08:57:06.554Z,8.40
2018-07-28T08:59:36.475Z,8.27
2018-07-28T09:02:05.879Z,9.80
2018-07-28T09:04:35.938Z,9.97
2018-07-28T09:07:05.396Z,17.13
2018-07-28T09:09:35.460Z,7.47
2018-07-28T09:12:05.431Z,9.07
2018-07-28T09:14:34.872Z,9.07
2018-07-28T09:17:05.098Z,7.53
2018-07-28T09:19:35.266Z,7.43
2018-07-28T09:22:05.044Z,7.27
2018-07-28T09:24:34.610Z,16.60
2018-07-28T09:27:04.062Z,12.27
2018-07-28T09:29:33.481Z,17.03
2018-07-28T09:32:02.992Z,6.93
2018-07-28T09:34:32.448Z,7.13
2018-07-28T09:37:01.977Z,13.10
2018-07-28T09:39:31.408Z,15.80
2018-07-28T09:42:00.905Z,7.87
2018-07-28T09:44:30.219Z,10.33
2018-07-28T09:46:59.582Z,12.57
2018-07-28T09:49:29.101Z,8.70
2018-07-28T09:51:58.664Z,9.20
2018-07-28T09:54:29.553Z,9.50
2018-07-28T09:56:58.963Z,6.93
2018-07-28T09:59:28.521Z,5.70
2018-07-28T10:01:58.210Z,7.97
2018-07-28T10:04:27.666Z,6.87
2018-07-28T10:06:57.422Z,6.73
2018-07-28T10:09:26.928Z,6.57
2018-07-28T10:11:56.393Z,8.03
2018-07-28T10:14:25.940Z,6.93
2018-07-28T10:16:55.435Z,11.10
2018-07-28T10:19:24.992Z,13.63
2018-07-28T10:21:54.114Z,11.30
2018-07-28T10:24:23.157Z,13.80
2018-07-28T10:26:52.132Z,7.57
2018-07-28T10:29:21.253Z,7.30
2018-07-28T10:31:50.443Z,6.23
2018-07-28T10:34:19.936Z,7.83
2018-07-28T10:36:49.613Z,7.33
2018-07-28T10:39:19.216Z,12.83
2018-07-28T10:41:48.560Z,10.03
2018-07-28T10:44:17.890Z,9.83
2018-07-28T10:46:47.269Z,7.63
2018-07-28T10:49:16.853Z,7.87
2018-07-28T10:51:46.591Z,7.27
2018-07-28T10:54:16.174Z,7.17
2018-07-28T10:56:45.534Z,6.80
2018-07-28T10:59:15.028Z,9.07
2018-07-28T11:01:44.517Z,6.93
2018-07-28T11:04:13.828Z,18.30
2018-07-28T11:06:43.356Z,11.63
2018-07-28T11:09:12.828Z,8.77
2018-07-28T11:11:42.463Z,7.70
2018-07-28T11:14:11.972Z,6.60
2018-07-28T11:16:41.935Z,7.13
2018-07-28T11:19:11.336Z,6.47
2018-07-28T11:21:40.798Z,12.07
2018-07-28T11:24:11.135Z,7.20
2018-07-28T11:26:40.769Z,7.63
2018-07-28T11:29:10.272Z,7.30
2018-07-28T11:31:50.878Z,6.47
2018-07-28T11:34:31.075Z,6.17
2018-07-28T11:37:11.153Z,6.93
2018-07-28T11:39:51.392Z,7.37
2018-07-28T11:42:31.713Z,12.40
2018-07-28T11:45:06.172Z,6.80
2018-07-28T11:47:36.058Z,7.70
2018-07-28T11:50:05.472Z,7.13
2018-07-28T11:52:35.342Z,7.20
2018-07-28T11:55:04.924Z,6.43
2018-07-28T11:57:34.293Z,6.60
2018-07-28T12:00:03.732Z,13.10
2018-07-28T12:02:33.304Z,6.80
2018-07-28T12:05:02.700Z,5.50
2018-07-28T12:07:32.141Z,10.13
2018-07-28T12:10:01.639Z,8.50
2018-07-28T12:12:31.220Z,7.33
2018-07-28T12:15:01.560Z,6.13
2018-07-28T12:17:31.315Z,6.40
2018-07-28T12:20:00.777Z,5.87
2018-07-28T12:22:30.215Z,5.67
2018-07-28T12:25:00.444Z,11.30
2018-07-28T12:27:29.971Z,5.10
2018-07-28T12:29:59.453Z,6.90
2018-07-28T12:32:28.939Z,12.10
2018-07-28T12:34:58.576Z,5.40
2018-07-28T12:37:27.827Z,5.20
2018-07-28T12:39:57.326Z,5.93
2018-07-28T12:42:26.754Z,4.57
2018-07-28T12:44:56.072Z,4.53
2018-07-28T12:47:25.405Z,6.97
2018-07-28T12:49:54.661Z,7.20
2018-07-28T12:52:24.924Z,5.23
2018-07-28T12:54:57.505Z,8.20
2018-07-28T12:57:27.230Z,4.30
2018-07-28T12:59:57.398Z,4.50
2018-07-28T13:02:27.015Z,5.53
2018-07-28T13:04:56.606Z,4.47
2018-07-28T13:07:26.399Z,5.00
2018-07-28T13:09:57.460Z,5.37
2018-07-28T13:12:26.861Z,4.77
2018-07-28T13:14:56.273Z,4.40
2018-07-28T13:17:26.327Z,4.37
2018-07-28T13:19:56.564Z,5.70
2018-07-28T13:22:26.832Z,11.20
2018-07-28T13:24:56.120Z,4.87
2018-07-28T13:27:26.020Z,9.73
2018-07-28T13:29:55.931Z,5.10
2018-07-28T13:32:26.135Z,4.10
2018-07-28T13:34:55.436Z,6.47
2018-07-28T13:37:24.733Z,5.63
2018-07-28T13:39:54.159Z,6.50
2018-07-28T13:42:23.664Z,5.10
2018-07-28T13:44:53.169Z,8.70
2018-07-28T13:47:22.578Z,5.93
2018-07-28T13:49:52.056Z,5.57
2018-07-28T13:52:21.438Z,6.03
2018-07-28T13:54:51.013Z,4.47
2018-07-28T13:57:20.323Z,9.20
2018-07-28T13:59:49.676Z,7.93
2018-07-28T14:02:20.461Z,6.00
2018-07-28T14:04:50.317Z,7.07
2018-07-28T14:07:19.863Z,5.23
2018-07-28T14:09:49.362Z,8.70
2018-07-28T14:12:19.036Z,5.10
2018-07-28T14:14:49.431Z,5.67
2018-07-28T14:17:18.958Z,6.27
2018-07-28T14:19:49.044Z,4.83
2018-07-28T14:22:18.485Z,4.90
2018-07-28T14:24:47.851Z,8.20
2018-07-28T14:27:17.264Z,5.60
2018-07-28T14:29:46.905Z,4.93
2018-07-28T14:32:17.205Z,5.83
2018-07-28T14:34:46.737Z,4.63
2018-07-28T14:37:16.280Z,4.97
2018-07-28T14:39:45.645Z,5.10
2018-07-28T14:42:14.975Z,5.97
2018-07-28T14:44:44.454Z,6.30
2018-07-28T14:47:13.880Z,7.13
2018-07-28T14:49:43.190Z,4.67
2018-07-28T14:52:13.419Z,5.00
2018-07-28T14:54:42.950Z,4.70
2018-07-28T14:57:12.408Z,5.97
2018-07-28T14:59:41.860Z,11.20
2018-07-28T15:02:11.369Z,5.43
2018-07-28T15:04:42.154Z,6.90
2018-07-28T15:07:11.791Z,5.30
2018-07-28T15:09:41.133Z,4.93
2018-07-28T15:12:10.819Z,6.10
2018-07-28T15:14:40.278Z,6.10
2018-07-28T15:17:09.699Z,8.40
2018-07-28T15:19:39.212Z,9.00
2018-07-28T15:22:08.864Z,6.17
2018-07-28T15:24:38.679Z,5.40
2018-07-28T15:27:08.486Z,5.90
2018-07-28T15:29:38.294Z,8.37
2018-07-28T15:32:07.750Z,10.70
2018-07-28T15:34:37.295Z,8.03
2018-07-28T15:37:08.160Z,5.37
2018-07-28T15:39:37.439Z,6.03
2018-07-28T15:42:06.987Z,7.03
2018-07-28T15:44:36.995Z,9.80
2018-07-28T15:47:06.435Z,6.17
2018-07-28T15:49:36.511Z,6.10
2018-07-28T15:52:05.901Z,6.40
2018-07-28T15:54:35.245Z,9.20
2018-07-28T15:57:04.899Z,5.57
2018-07-28T15:59:34.339Z,5.60
2018-07-28T16:02:03.638Z,7.43
2018-07-28T16:04:32.992Z,6.30
2018-07-28T16:07:02.780Z,7.00
2018-07-28T16:09:32.136Z,5.97
2018-07-28T16:12:01.449Z,7.10
2018-07-28T16:14:30.774Z,5.33
2018-07-28T16:17:00.094Z,5.70
2018-07-28T16:19:29.551Z,6.80
2018-07-28T16:21:59.180Z,5.90
2018-07-28T16:24:29.023Z,7.67
2018-07-28T16:26:58.994Z,5.90
2018-07-28T16:29:29.013Z,5.17
2018-07-28T16:32:00.354Z,5.97
2018-07-28T16:34:30.793Z,8.03
2018-07-28T16:37:00.432Z,8.13
2018-07-28T16:39:30.930Z,14.00
2018-07-28T16:42:00.338Z,9.30
2018-07-28T16:44:29.814Z,6.73
2018-07-28T16:46:59.305Z,9.50
2018-07-28T16:49:28.654Z,6.63
2018-07-28T16:51:58.291Z,7.10
2018-07-28T16:54:27.951Z,5.63
2018-07-28T16:56:57.285Z,8.83
2018-07-28T16:59:27.038Z,5.53
2018-07-28T17:01:56.768Z,5.07
2018-07-28T17:04:27.467Z,8.07
2018-07-28T17:06:56.946Z,5.97
2018-07-28T17:09:26.824Z,5.60
2018-07-28T17:11:56.255Z,12.07
2018-07-28T17:14:25.743Z,6.20
2018-07-28T17:16:55.163Z,5.70
2018-07-28T17:19:24.727Z,14.20
2018-07-28T17:21:54.308Z,5.37
2018-07-28T17:24:24.615Z,6.60
2018-07-28T17:26:54.221Z,12.10
2018-07-28T17:29:23.469Z,8.83
2018-07-28T17:31:52.765Z,4.47
2018-07-28T17:34:22.116Z,6.07
2018-07-28T17:36:51.416Z,5.70
2018-07-28T17:39:20.674Z,6.30
2018-07-28T17:41:50.783Z,7.17
2018-07-28T17:44:20.177Z,7.00
2018-07-28T17:46:49.666Z,6.67
2018-07-28T17:49:19.172Z,5.53
2018-07-28T17:51:49.383Z,11.20
2018-07-28T17:54:20.263Z,7.53
2018-07-28T17:56:54.250Z,7.73
2018-07-28T17:59:26.105Z,5.37
2018-07-28T18:01:56.663Z,8.00
2018-07-28T18:04:26.856Z,5.23
2018-07-28T18:07:00.539Z,5.80
2018-07-28T18:09:31.742Z,5.67
2018-07-28T18:12:01.776Z,7.23
2018-07-28T18:14:32.489Z,6.03
2018-07-28T18:17:03.913Z,5.70
2018-07-28T18:19:33.510Z,10.37
2018-07-28T18:22:03.311Z,5.60
2018-07-28T18:24:32.883Z,7.50
2018-07-28T18:27:02.166Z,4.77
2018-07-28T18:29:31.389Z,5.80
2018-07-28T18:32:00.668Z,6.07
2018-07-28T18:34:30.109Z,6.00
2018-07-28T18:36:59.670Z,5.20
2018-07-28T18:39:28.995Z,9.33
2018-07-28T18:41:58.571Z,9.23
2018-07-28T18:44:28.028Z,9.13
2018-07-28T18:46:57.475Z,9.90
2018-07-28T18:49:27.802Z,8.00
2018-07-28T18:51:58.877Z,5.40
2018-07-28T18:54:29.406Z,7.63
2018-07-28T18:56:58.934Z,5.20
2018-07-28T18:59:28.483Z,6.47
2018-07-28T19:01:57.903Z,6.27
2018-07-28T19:04:27.911Z,5.77
2018-07-28T19:06:57.633Z,6.70
2018-07-28T19:09:32.265Z,5.23
2018-07-28T19:12:07.450Z,7.97
2018-07-28T19:14:39.586Z,11.10
2018-07-28T19:17:09.517Z,8.27
2018-07-28T19:19:39.168Z,6.00
2018-07-28T19:22:14.178Z,10.23
2018-07-28T19:24:44.419Z,8.63
2018-07-28T19:27:13.926Z,7.43
2018-07-28T19:29:44.820Z,9.90
2018-07-28T19:32:14.919Z,8.20
2018-07-28T19:34:44.082Z,6.43
2018-07-28T19:37:18.991Z,7.50
2018-07-28T19:39:48.573Z,10.03
2018-07-28T19:42:23.123Z,13.77
2018-07-28T19:44:52.890Z,8.03
2018-07-28T19:47:22.642Z,6.90
2018-07-28T19:49:59.269Z,7.50
2018-07-28T19:52:28.819Z,8.40
2018-07-28T19:55:01.957Z,9.70
2018-07-28T19:57:39.552Z,6.53
2018-07-28T20:00:17.056Z,11.33
2018-07-28T20:02:46.499Z,6.00
2018-07-28T20:05:15.806Z,14.80
2018-07-28T20:07:45.336Z,13.37
2018-07-28T20:10:15.002Z,8.07
2018-07-28T20:12:44.644Z,12.10
2018-07-28T20:15:14.457Z,10.47
2018-07-28T20:17:44.140Z,7.37
2018-07-28T20:20:13.798Z,9.70
2018-07-28T20:22:43.251Z,7.40
2018-07-28T20:25:12.510Z,9.10
2018-07-28T20:27:42.070Z,10.10
2018-07-28T20:30:13.711Z,18.60
2018-07-28T20:32:44.314Z,10.07
2018-07-28T20:35:13.819Z,16.47
2018-07-28T20:37:43.241Z,14.20
2018-07-28T20:40:13.531Z,6.13
2018-07-28T20:42:44.217Z,8.07
2018-07-28T20:45:13.516Z,9.00
2018-07-28T20:47:42.823Z,8.80
2018-07-28T20:50:12.984Z,7.87
2018-07-28T20:52:43.099Z,7.23
2018-07-28T20:55:12.507Z,9.33
2018-07-28T20:57:42.236Z,7.70
2018-07-28T21:00:11.987Z,7.80
2018-07-28T21:02:41.382Z,9.13
2018-07-28T21:05:10.929Z,12.27
2018-07-28T21:07:40.471Z,8.67
2018-07-28T21:10:10.032Z,8.57
2018-07-28T21:12:39.349Z,9.87
2018-07-28T21:15:08.700Z,13.97
2018-07-28T21:17:39.265Z,12.03
2018-07-28T21:20:09.427Z,7.60
2018-07-28T21:22:39.790Z,8.10
2018-07-28T21:25:09.301Z,7.00
2018-07-28T21:27:39.293Z,9.00
2018-07-28T21:30:08.636Z,7.57
2018-07-28T21:32:38.392Z,12.30
2018-07-28T21:35:07.902Z,7.40
2018-07-28T21:37:37.346Z,9.43
2018-07-28T21:40:06.903Z,9.50
2018-07-28T21:42:36.334Z,10.10
2018-07-28T21:45:05.930Z,13.30
2018-07-28T21:47:35.215Z,9.40
2018-07-28T21:50:05.124Z,9.53
2018-07-28T21:52:34.717Z,13.70
2018-07-28T21:55:04.196Z,14.27
2018-07-28T21:57:33.727Z,12.50
2018-07-28T22:00:03.155Z,11.47
2018-07-28T22:02:32.716Z,13.40
2018-07-28T22:05:02.351Z,15.53
2018-07-28T22:07:31.675Z,12.47
2018-07-28T22:10:01.000Z,10.23
2018-07-28T22:12:30.461Z,8.97
2018-07-28T22:15:00.000Z,9.17
2018-07-28T22:17:29.380Z,9.73
2018-07-28T22:20:01.032Z,12.43
2018-07-28T22:22:32.074Z,12.07
2018-07-28T22:25:02.985Z,8.10
2018-07-28T22:27:34.550Z,11.87
2018-07-28T22:30:04.639Z,9.50
2018-07-28T22:32:34.061Z,11.00
2018-07-28T22:35:03.431Z,8.43
2018-07-28T22:37:32.765Z,17.90
2018-07-28T22:40:02.352Z,12.03
2018-07-28T22:42:42.355Z,8.43
2018-07-28T22:45:11.657Z,8.00
2018-07-28T22:47:41.286Z,13.10
2018-07-28T22:50:10.572Z,13.13
2018-07-28T22:52:40.001Z,11.77
2018-07-28T22:55:09.398Z,8.37
2018-07-28T22:57:38.895Z,8.57
2018-07-28T23:00:08.744Z,9.40
2018-07-28T23:02:38.841Z,9.50
2018-07-28T23:05:09.220Z,7.43
2018-07-28T23:07:38.747Z,8.23
2018-07-28T23:10:08.220Z,8.40
2018-07-28T23:12:38.147Z,8.40
2018-07-28T23:15:07.687Z,8.73
2018-07-28T23:17:37.002Z,6.37
2018-07-28T23:20:06.539Z,7.93
2018-07-28T23:22:35.863Z,8.70
2018-07-28T23:25:05.470Z,6.60
2018-07-28T23:27:34.930Z,10.43
2018-07-28T23:30:04.408Z,7.27
2018-07-28T23:32:33.733Z,10.93
2018-07-28T23:35:03.282Z,6.80
2018-07-28T23:37:32.762Z,8.90
2018-07-28T23:40:02.401Z,7.53
2018-07-28T23:42:31.931Z,7.60
2018-07-28T23:45:01.368Z,10.17
2018-07-28T23:47:30.616Z,8.27
2018-07-28T23:50:00.050Z,8.13
2018-07-28T23:52:31.331Z,8.97
2018-07-28T23:55:01.196Z,9.20
2018-07-28T23:57:30.422Z,7.80
